Baudette, MN

5:16 AM CDT on August 03, 2015 (GMT -0500)
Baudette International | | Change Station
CLOSE
Current Station
Airport
Location: Baudette,
Elevation: 1083 ft
Nearby Weather Stations

Elev 1083 ft 48.73 °N, 94.61 °W | Updated 23 minutes ago

Partly Cloudy
Partly Cloudy
57 °F
Feels Like 57 °F
N
8
Wind Variable Wind from West

Today
High -- | Low -- °F
--% Chance of Precip.
Yesterday
High -- | Low -- °F
Precip. -- in
5:55 AM 8:54 PM
Waning Gibbous, 88% visible
Pressure 29.82 in
Visibility 10.0 miles
Clouds Scattered Clouds 2400 ft
Mostly Cloudy 3700 ft
Overcast 4600 ft
Dew Point 50 °F
Humidity 77%
Rainfall 0.00 in
Snow Depth Not available.
UV 0 out of 12
Pollen 4.10 out of 12
Air Quality Not available.
Flu Activity Not available.
METAR KBDE 030953Z AUTO 26007KT 10SM SCT024 BKN037 OVC046 14/10 A2981 RMK AO2 SLP096 T01390100 TSNO

More Conditions Fewer Conditions

Pressure 29.82 in
Visibility 10.0 miles
Clouds Scattered Clouds 2400 ft
Mostly Cloudy 3700 ft
Overcast 4600 ft
Dew Point 50 °F
Humidity 77%
Rainfall 0.00 in
Snow Depth Not available.
UV 0 out of 12
Pollen 4.10 out of 12
Air Quality Not available.
Flu Activity Not available.
METAR KBDE 030953Z AUTO 26007KT 10SM SCT024 BKN037 OVC046 14/10 A2981 RMK AO2 SLP096 T01390100 TSNO

More Conditions Fewer Conditions

10-Day Weather Forecast

×

Almanac

Astronomy

Aug. 03, 2015 Rise Set
Actual Time
Civil Twilight
Nautical Twilight
Astronomical Twilight
Moon
Length of Visible Light
Length of Day
Tomorrow will be .
, % of the Moon is Illuminated

Today's Extremes

State Highs State Lows

Community

WunderPhotos

Upload Photos

1,843,610 photos uploaded!

WunderBlogs® & News

Nearby

Air Quality

  Air Quality AQ Index Pollutant
Not available.

Snow Depth

Station Depth Elevation

Earthquake Activity

City Distance Mag. Time & Date
Minimum magnitude displayed is 2.5.

Coastal Water Temperatures

Place Temperature

Stations

Nearby Weather Stations

Station Location Temp. Windchill Dew Point Humidity Wind Precip. Elev Updated Type